createdAt,value
2019-03-26T00:00:33.314Z,17.93
2019-03-26T00:03:03.041Z,21.53
2019-03-26T00:05:32.490Z,23.53
2019-03-26T00:08:01.952Z,25.67
2019-03-26T00:10:31.408Z,24.43
2019-03-26T00:13:00.875Z,22.70
2019-03-26T00:15:30.339Z,22.50
2019-03-26T00:17:59.801Z,24.83
2019-03-26T00:20:29.332Z,26.40
2019-03-26T00:22:58.823Z,25.00
2019-03-26T00:25:28.287Z,22.40
2019-03-26T00:27:57.768Z,22.77
2019-03-26T00:30:27.616Z,21.03
2019-03-26T00:32:57.065Z,21.60
2019-03-26T00:35:26.539Z,20.93
2019-03-26T00:37:56.352Z,20.73
2019-03-26T00:40:25.831Z,21.03
2019-03-26T00:42:55.665Z,23.13
2019-03-26T00:45:25.120Z,23.33
2019-03-26T00:47:54.584Z,20.90
2019-03-26T00:50:24.052Z,21.80
2019-03-26T00:52:54.786Z,21.97
2019-03-26T00:55:24.155Z,20.63
2019-03-26T00:57:53.789Z,21.67
2019-03-26T01:00:29.088Z,22.13
2019-03-26T01:02:58.627Z,22.23
2019-03-26T01:05:28.225Z,22.77
2019-03-26T01:07:59.296Z,21.27
2019-03-26T01:10:28.799Z,20.60
2019-03-26T01:12:58.273Z,21.40
2019-03-26T01:15:27.747Z,20.17
2019-03-26T01:17:57.191Z,19.67
2019-03-26T01:20:26.664Z,19.97
2019-03-26T01:22:56.142Z,20.53
2019-03-26T01:25:25.623Z,18.83
2019-03-26T01:27:55.079Z,19.30
2019-03-26T01:30:24.542Z,19.60
2019-03-26T01:32:54.001Z,19.53
2019-03-26T01:35:23.466Z,20.10
2019-03-26T01:37:52.948Z,17.93
2019-03-26T01:40:22.402Z,18.27
2019-03-26T01:42:51.846Z,18.23
2019-03-26T01:45:21.313Z,17.77
2019-03-26T01:47:50.762Z,17.70
2019-03-26T01:50:20.216Z,17.07
2019-03-26T01:52:49.916Z,17.13
2019-03-26T01:55:19.369Z,16.50
2019-03-26T01:57:48.817Z,16.00
2019-03-26T02:00:18.292Z,17.10
2019-03-26T02:02:47.735Z,15.57
2019-03-26T02:05:17.573Z,14.93
2019-03-26T02:07:47.596Z,15.10
2019-03-26T02:10:17.141Z,14.40
2019-03-26T02:12:48.630Z,15.03
2019-03-26T02:15:28.711Z,15.37
2019-03-26T02:17:59.072Z,14.93
2019-03-26T02:20:29.005Z,15.07
2019-03-26T02:22:58.976Z,15.37
2019-03-26T02:25:28.955Z,15.73
2019-03-26T02:27:58.881Z,16.43
2019-03-26T02:30:29.218Z,17.17
2019-03-26T02:32:59.499Z,17.90
2019-03-26T02:35:29.026Z,18.40
2019-03-26T02:37:58.754Z,17.00
2019-03-26T02:40:28.301Z,18.10
2019-03-26T02:42:57.749Z,18.10
2019-03-26T02:45:27.287Z,19.33
2019-03-26T02:47:57.016Z,19.13
2019-03-26T02:50:26.550Z,19.67
2019-03-26T02:52:56.000Z,20.17
2019-03-26T02:55:25.463Z,19.90
2019-03-26T02:57:54.916Z,19.73
2019-03-26T03:00:24.385Z,21.30
2019-03-26T03:02:53.849Z,20.60
2019-03-26T03:05:35.303Z,20.67
2019-03-26T03:07:54.491Z,21.80
2019-03-26T03:10:24.106Z,21.00
2019-03-26T03:12:53.559Z,20.93
2019-03-26T03:15:23.030Z,20.80
2019-03-26T03:17:52.500Z,20.20
2019-03-26T03:20:22.339Z,21.03
2019-03-26T03:22:51.789Z,20.60
2019-03-26T03:25:21.268Z,19.97
2019-03-26T03:27:51.051Z,19.37
2019-03-26T03:30:20.565Z,19.60
2019-03-26T03:32:50.058Z,20.10
2019-03-26T03:35:19.580Z,19.60
2019-03-26T03:37:49.078Z,19.47
2019-03-26T03:40:18.575Z,19.40
2019-03-26T03:42:48.392Z,18.57
2019-03-26T03:45:21.044Z,18.20
2019-03-26T03:47:50.670Z,17.57
2019-03-26T03:50:20.486Z,17.83
2019-03-26T03:52:50.318Z,18.87
2019-03-26T03:55:19.803Z,18.93
2019-03-26T03:57:52.785Z,18.00
2019-03-26T04:00:35.728Z,18.67
2019-03-26T04:03:08.108Z,18.27
2019-03-26T04:05:37.655Z,19.30
2019-03-26T04:08:07.107Z,18.20
2019-03-26T04:10:36.927Z,19.17
2019-03-26T04:13:06.566Z,19.07
2019-03-26T04:15:36.321Z,18.13
2019-03-26T04:18:05.767Z,17.97
2019-03-26T04:20:35.246Z,18.20
2019-03-26T04:23:04.700Z,19.20
2019-03-26T04:25:34.864Z,18.80
2019-03-26T04:28:04.486Z,18.37
2019-03-26T04:30:34.047Z,19.90
2019-03-26T04:33:23.161Z,19.03
2019-03-26T04:35:52.648Z,18.93
2019-03-26T04:38:22.096Z,16.73
2019-03-26T04:40:51.576Z,18.17
2019-03-26T04:43:21.034Z,18.33
2019-03-26T04:45:50.496Z,18.30
2019-03-26T04:48:19.944Z,21.33
2019-03-26T04:50:49.416Z,20.77
2019-03-26T04:53:18.874Z,22.57
2019-03-26T04:55:48.451Z,22.70
2019-03-26T04:58:18.207Z,22.17
2019-03-26T05:00:47.924Z,23.17
2019-03-26T05:03:17.367Z,22.43
2019-03-26T05:05:46.851Z,21.20
2019-03-26T05:08:16.568Z,21.23
2019-03-26T05:10:49.053Z,21.67
2019-03-26T05:13:17.206Z,19.63
2019-03-26T05:15:46.716Z,21.47
2019-03-26T05:18:16.178Z,21.73
2019-03-26T05:20:45.640Z,20.23
2019-03-26T05:23:15.110Z,20.73
2019-03-26T05:25:44.575Z,20.87
2019-03-26T05:28:14.041Z,20.07
2019-03-26T05:30:43.635Z,21.30
2019-03-26T05:33:13.092Z,19.93
2019-03-26T05:35:42.570Z,20.70
2019-03-26T05:38:12.041Z,20.13
2019-03-26T05:40:41.518Z,19.93
2019-03-26T05:43:11.270Z,18.50
2019-03-26T05:45:40.722Z,21.37
2019-03-26T05:48:10.217Z,18.80
2019-03-26T05:50:41.573Z,19.10
2019-03-26T05:53:11.120Z,20.47
2019-03-26T05:55:40.575Z,21.30
2019-03-26T05:58:10.116Z,17.97
2019-03-26T06:00:39.609Z,18.67
2019-03-26T06:03:09.107Z,16.33
2019-03-26T06:05:38.858Z,16.60
2019-03-26T06:08:08.339Z,18.00
2019-03-26T06:10:37.781Z,17.67
2019-03-26T06:13:07.590Z,18.37
2019-03-26T06:15:37.394Z,15.27
2019-03-26T06:18:07.041Z,15.77
2019-03-26T06:20:36.518Z,15.23
2019-03-26T06:23:05.968Z,16.20
2019-03-26T06:25:35.448Z,18.23
2019-03-26T06:28:04.916Z,16.53
2019-03-26T06:30:34.652Z,16.47
2019-03-26T06:33:04.225Z,17.93
2019-03-26T06:35:33.665Z,17.60
2019-03-26T06:38:03.143Z,17.50
2019-03-26T06:40:32.591Z,18.93
2019-03-26T06:43:02.375Z,18.23
2019-03-26T06:45:32.187Z,18.47
2019-03-26T06:48:04.225Z,17.97
2019-03-26T06:50:32.826Z,17.87
2019-03-26T06:53:02.370Z,18.47
2019-03-26T06:55:31.822Z,18.90
2019-03-26T06:58:01.290Z,17.37
2019-03-26T07:00:32.283Z,18.17
2019-03-26T07:03:03.011Z,18.63
2019-03-26T07:05:32.713Z,18.17
2019-03-26T07:08:02.180Z,16.80
2019-03-26T07:10:31.811Z,15.13
2019-03-26T07:13:01.288Z,16.50
2019-03-26T07:15:31.084Z,15.43
2019-03-26T07:18:00.576Z,15.07
2019-03-26T07:20:30.065Z,16.27
2019-03-26T07:22:59.539Z,17.53
2019-03-26T07:25:29.325Z,17.37
2019-03-26T07:27:58.834Z,18.00
2019-03-26T07:30:44.841Z,19.20
2019-03-26T07:33:14.319Z,18.80
2019-03-26T07:35:43.783Z,20.80
2019-03-26T07:38:13.528Z,21.13
2019-03-26T07:40:42.980Z,21.47
2019-03-26T07:43:12.447Z,26.20
2019-03-26T07:45:41.904Z,23.13
2019-03-26T07:48:11.434Z,24.10
2019-03-26T07:50:40.872Z,25.43
2019-03-26T07:53:11.650Z,24.23
2019-03-26T07:55:43.844Z,23.57
2019-03-26T07:58:12.561Z,23.77
2019-03-26T08:00:42.009Z,21.60
2019-03-26T08:03:11.500Z,21.80
2019-03-26T08:05:40.968Z,21.33
2019-03-26T08:08:10.428Z,23.30
2019-03-26T08:10:39.889Z,22.47
2019-03-26T08:13:09.356Z,22.23
2019-03-26T08:15:38.955Z,23.77
2019-03-26T08:18:08.368Z,22.07
2019-03-26T08:20:38.092Z,21.93
2019-03-26T08:23:07.566Z,21.13
2019-03-26T08:25:37.034Z,23.40
2019-03-26T08:28:06.490Z,22.03
2019-03-26T08:30:36.330Z,21.67
2019-03-26T08:33:05.859Z,22.27
2019-03-26T08:35:35.332Z,21.73
2019-03-26T08:38:12.497Z,21.37
2019-03-26T08:40:35.974Z,24.00
2019-03-26T08:43:05.467Z,21.10
2019-03-26T08:45:34.917Z,22.77
2019-03-26T08:48:04.819Z,21.30
2019-03-26T08:50:34.292Z,24.27
2019-03-26T08:53:03.750Z,21.83
2019-03-26T08:55:33.206Z,23.47
2019-03-26T08:58:02.682Z,22.27
2019-03-26T09:00:32.386Z,22.47
2019-03-26T09:03:01.948Z,22.07
2019-03-26T09:05:31.404Z,25.03
2019-03-26T09:08:00.931Z,22.87
2019-03-26T09:10:30.552Z,17.63
2019-03-26T09:13:00.087Z,18.80
2019-03-26T09:15:29.563Z,17.53
2019-03-26T09:17:59.064Z,17.13
2019-03-26T09:20:28.480Z,16.43
2019-03-26T09:22:58.111Z,18.93
2019-03-26T09:25:27.575Z,14.90
2019-03-26T09:27:57.376Z,14.73
2019-03-26T09:30:27.037Z,14.83
2019-03-26T09:32:56.531Z,13.60
2019-03-26T09:35:25.999Z,12.50
2019-03-26T09:37:55.815Z,13.50
2019-03-26T09:40:25.304Z,14.03
2019-03-26T09:42:54.773Z,11.47
2019-03-26T09:45:24.225Z,13.70
2019-03-26T09:47:54.043Z,11.00
2019-03-26T09:50:31.698Z,11.07
2019-03-26T09:53:01.197Z,10.43
2019-03-26T09:55:30.659Z,11.57
2019-03-26T09:58:00.125Z,10.90
2019-03-26T10:00:29.659Z,10.77
2019-03-26T10:02:59.079Z,9.93
2019-03-26T10:05:28.987Z,10.07
2019-03-26T10:07:58.454Z,10.77
2019-03-26T10:10:27.914Z,10.00
2019-03-26T10:12:57.375Z,9.20
2019-03-26T10:15:26.844Z,10.60
2019-03-26T10:17:56.299Z,10.47
2019-03-26T10:20:25.781Z,9.77
2019-03-26T10:22:55.300Z,9.10
2019-03-26T10:25:24.793Z,8.33
2019-03-26T10:27:54.573Z,7.10
2019-03-26T10:30:37.729Z,7.40
2019-03-26T10:33:07.710Z,6.77
2019-03-26T10:35:37.246Z,6.87
2019-03-26T10:38:06.954Z,6.33
2019-03-26T10:40:37.850Z,5.90
2019-03-26T10:43:07.476Z,5.60
2019-03-26T10:45:37.127Z,6.20
2019-03-26T10:48:06.756Z,5.33
2019-03-26T10:50:36.210Z,5.70
2019-03-26T10:53:05.652Z,5.77
2019-03-26T10:55:35.103Z,5.43
2019-03-26T10:58:04.888Z,5.40
2019-03-26T11:00:34.354Z,5.93
2019-03-26T11:03:03.825Z,5.27
2019-03-26T11:05:33.298Z,4.80
2019-03-26T11:08:02.756Z,4.73
2019-03-26T11:10:32.369Z,3.47
2019-03-26T11:13:01.816Z,3.47
2019-03-26T11:15:31.274Z,3.07
2019-03-26T11:18:00.716Z,3.00
2019-03-26T11:20:30.557Z,2.90
2019-03-26T11:23:00.105Z,2.90
2019-03-26T11:25:29.579Z,2.63
2019-03-26T11:27:59.013Z,2.53
2019-03-26T11:30:28.799Z,2.93
2019-03-26T11:32:58.261Z,2.10
2019-03-26T11:35:27.746Z,2.17
2019-03-26T11:37:57.226Z,2.50
2019-03-26T11:40:26.698Z,2.10
2019-03-26T11:42:56.127Z,2.40
2019-03-26T11:45:25.766Z,2.07
2019-03-26T11:47:55.211Z,2.03
2019-03-26T11:50:24.659Z,2.50
2019-03-26T11:52:54.164Z,2.33
2019-03-26T11:55:23.783Z,2.40
2019-03-26T11:57:53.671Z,2.33
2019-03-26T12:00:25.053Z,2.73
2019-03-26T12:02:54.558Z,3.13
2019-03-26T12:05:24.019Z,2.73
2019-03-26T12:07:53.455Z,2.30
2019-03-26T12:10:22.934Z,2.77
2019-03-26T12:12:52.373Z,3.07
2019-03-26T12:15:21.868Z,3.40
2019-03-26T12:17:51.295Z,3.97
2019-03-26T12:20:20.758Z,5.20
2019-03-26T12:22:50.388Z,5.07
2019-03-26T12:25:19.856Z,5.50
2019-03-26T12:27:49.316Z,6.10
2019-03-26T12:30:21.955Z,5.87
2019-03-26T12:32:51.399Z,5.97
2019-03-26T12:35:30.259Z,6.57
2019-03-26T12:37:59.709Z,6.87
2019-03-26T12:40:29.180Z,5.83
2019-03-26T12:42:58.615Z,6.40
2019-03-26T12:45:28.095Z,6.33
2019-03-26T12:47:57.559Z,6.23
2019-03-26T12:50:27.277Z,5.60
2019-03-26T12:52:56.719Z,4.73
2019-03-26T12:55:26.192Z,5.07
2019-03-26T12:57:55.647Z,5.60
2019-03-26T13:00:32.425Z,4.67
2019-03-26T13:03:11.553Z,5.13
2019-03-26T13:05:47.280Z,4.37
2019-03-26T13:08:23.989Z,4.27
2019-03-26T13:11:04.901Z,4.40
2019-03-26T13:13:39.319Z,4.40
2019-03-26T13:16:18.413Z,4.53
2019-03-26T13:18:51.658Z,4.87
2019-03-26T13:21:31.820Z,4.07
2019-03-26T13:24:11.637Z,4.90
2019-03-26T13:26:48.838Z,5.03
2019-03-26T13:29:27.450Z,4.43
2019-03-26T13:32:05.957Z,4.43
2019-03-26T13:34:35.162Z,4.90
2019-03-26T13:37:13.337Z,4.53
2019-03-26T13:39:50.960Z,4.20
2019-03-26T13:42:28.401Z,4.23
2019-03-26T13:45:17.940Z,4.00
2019-03-26T13:48:01.188Z,3.90
2019-03-26T13:50:34.298Z,3.73
2019-03-26T13:53:20.127Z,4.07
2019-03-26T13:56:19.432Z,3.70
2019-03-26T13:58:59.817Z,3.50
2019-03-26T14:04:31.486Z,3.67
2019-03-26T14:07:21.600Z,3.00
2019-03-26T14:09:58.236Z,3.90
2019-03-26T14:12:43.813Z,3.50
2019-03-26T14:15:37.187Z,3.97
2019-03-26T14:18:12.808Z,4.00
2019-03-26T14:20:42.898Z,4.30
2019-03-26T14:23:12.560Z,3.93
2019-03-26T14:25:43.993Z,4.63
2019-03-26T14:28:21.311Z,4.27
2019-03-26T14:30:57.636Z,3.90
2019-03-26T14:33:39.090Z,3.57
2019-03-26T14:36:18.415Z,4.10
2019-03-26T14:39:05.502Z,4.00
2019-03-26T14:41:41.511Z,3.83
2019-03-26T14:44:19.463Z,3.60
2019-03-26T14:47:07.917Z,3.63
2019-03-26T14:49:43.231Z,3.50
2019-03-26T14:52:23.678Z,3.17
2019-03-26T14:54:55.133Z,3.63
2019-03-26T14:57:41.778Z,3.20
2019-03-26T15:00:18.652Z,2.90
2019-03-26T15:02:50.684Z,3.37
2019-03-26T15:05:23.433Z,3.40
2019-03-26T15:07:59.159Z,3.77
2019-03-26T15:10:28.839Z,3.73
2019-03-26T15:12:58.311Z,3.53
2019-03-26T15:15:27.772Z,3.10
2019-03-26T15:17:57.228Z,2.97
2019-03-26T15:20:26.681Z,3.40
2019-03-26T15:22:58.034Z,2.70
2019-03-26T15:25:27.355Z,3.20
2019-03-26T15:27:56.810Z,3.30
2019-03-26T15:30:27.293Z,3.30
2019-03-26T15:32:56.791Z,2.93
2019-03-26T15:35:26.432Z,2.97
2019-03-26T15:37:55.891Z,3.10
2019-03-26T15:40:25.337Z,3.43
2019-03-26T15:42:54.882Z,3.47
2019-03-26T15:45:24.422Z,3.80
2019-03-26T15:47:54.173Z,3.57
2019-03-26T15:50:37.930Z,3.30
2019-03-26T15:53:09.160Z,3.43
2019-03-26T15:55:38.789Z,3.27
2019-03-26T15:58:08.321Z,3.90
2019-03-26T16:00:37.887Z,3.47
2019-03-26T16:03:07.378Z,3.40
2019-03-26T16:05:36.833Z,3.43
2019-03-26T16:08:06.361Z,3.67
2019-03-26T16:10:35.815Z,3.43
2019-03-26T16:13:05.714Z,3.27
2019-03-26T16:15:44.148Z,3.57
2019-03-26T16:18:08.229Z,3.57
2019-03-26T16:20:38.219Z,3.67
2019-03-26T16:23:07.674Z,3.80
2019-03-26T16:25:37.192Z,3.60
2019-03-26T16:28:06.716Z,4.23
2019-03-26T16:30:36.468Z,3.87
2019-03-26T16:33:06.106Z,3.60
2019-03-26T16:35:35.559Z,3.67
2019-03-26T16:38:05.255Z,3.67
2019-03-26T16:40:34.693Z,3.53
2019-03-26T16:43:04.179Z,3.73
2019-03-26T16:45:33.634Z,3.60
2019-03-26T16:48:03.418Z,3.83
2019-03-26T16:50:32.879Z,3.57
2019-03-26T16:53:02.526Z,3.97
2019-03-26T16:55:31.980Z,3.67
2019-03-26T16:58:01.445Z,4.27
2019-03-26T17:00:32.040Z,4.13
2019-03-26T17:03:01.708Z,4.00
2019-03-26T17:05:31.170Z,5.43
2019-03-26T17:08:00.620Z,6.37
2019-03-26T17:10:30.090Z,4.50
2019-03-26T17:12:59.519Z,4.53
2019-03-26T17:15:28.972Z,4.40
2019-03-26T17:17:58.593Z,4.47
2019-03-26T17:20:28.118Z,4.33
2019-03-26T17:22:57.737Z,4.90
2019-03-26T17:25:27.159Z,5.00
2019-03-26T17:27:56.905Z,4.93
2019-03-26T17:30:26.366Z,5.40
2019-03-26T17:32:56.831Z,6.00
2019-03-26T17:35:26.289Z,5.77
2019-03-26T17:37:59.969Z,6.17
2019-03-26T17:40:26.899Z,6.97
2019-03-26T17:42:56.377Z,6.07
2019-03-26T17:45:25.852Z,6.47
2019-03-26T17:47:55.579Z,5.73
2019-03-26T17:50:25.030Z,6.40
2019-03-26T17:52:54.511Z,6.70
2019-03-26T17:55:27.229Z,6.43
2019-03-26T17:57:56.899Z,7.40
2019-03-26T18:00:41.137Z,6.97
2019-03-26T18:03:10.688Z,7.63
2019-03-26T18:05:40.270Z,6.80
2019-03-26T18:08:09.905Z,8.43
2019-03-26T18:10:39.437Z,6.93
2019-03-26T18:13:08.918Z,7.20
2019-03-26T18:15:38.359Z,6.83
2019-03-26T18:18:09.459Z,6.63
2019-03-26T18:20:38.904Z,6.77
2019-03-26T18:23:08.373Z,6.60
2019-03-26T18:25:37.823Z,7.03
2019-03-26T18:28:07.463Z,6.50
2019-03-26T18:30:36.938Z,7.43
2019-03-26T18:33:06.446Z,7.80
2019-03-26T18:35:36.042Z,7.80
2019-03-26T18:38:05.518Z,8.20
2019-03-26T18:40:38.375Z,8.73
2019-03-26T18:43:07.835Z,7.87
2019-03-26T18:45:37.315Z,7.70
2019-03-26T18:48:06.867Z,8.20
2019-03-26T18:50:37.410Z,9.50
2019-03-26T18:53:06.952Z,8.57
2019-03-26T18:55:36.414Z,8.50
2019-03-26T18:58:05.913Z,8.70
2019-03-26T19:00:36.997Z,9.57
2019-03-26T19:03:07.104Z,8.50
2019-03-26T19:05:36.541Z,8.80
2019-03-26T19:08:06.155Z,9.53
2019-03-26T19:10:36.360Z,10.07
2019-03-26T19:13:18.574Z,9.20
2019-03-26T19:15:37.051Z,9.30
2019-03-26T19:18:06.545Z,9.23
2019-03-26T19:20:36.290Z,9.63
2019-03-26T19:23:05.870Z,10.50
2019-03-26T19:25:35.336Z,10.87
2019-03-26T19:28:04.784Z,11.13
2019-03-26T19:30:34.309Z,10.70
2019-03-26T19:33:04.811Z,11.23
2019-03-26T19:35:34.277Z,12.33
2019-03-26T19:38:03.748Z,14.00
2019-03-26T19:40:34.172Z,10.90
2019-03-26T19:43:10.939Z,10.33
2019-03-26T19:45:34.800Z,11.13
2019-03-26T19:48:04.279Z,14.47
2019-03-26T19:50:33.756Z,12.07
2019-03-26T19:53:03.217Z,11.73
2019-03-26T19:55:32.953Z,12.40
2019-03-26T19:58:02.430Z,12.10
2019-03-26T20:00:33.088Z,11.47
2019-03-26T20:03:02.868Z,11.37
2019-03-26T20:05:35.201Z,11.50
2019-03-26T20:08:03.523Z,16.03
2019-03-26T20:10:33.309Z,12.77
2019-03-26T20:13:02.766Z,19.67
2019-03-26T20:15:32.534Z,11.23
2019-03-26T20:18:02.249Z,11.70
2019-03-26T20:20:31.765Z,11.43
2019-03-26T20:23:01.235Z,11.40
2019-03-26T20:25:30.683Z,11.70
2019-03-26T20:28:00.136Z,11.50
2019-03-26T20:30:29.633Z,10.73
2019-03-26T20:32:59.101Z,10.67
2019-03-26T20:35:28.640Z,10.10
2019-03-26T20:37:58.119Z,11.10
2019-03-26T20:40:27.648Z,11.13
2019-03-26T20:42:58.383Z,11.87
2019-03-26T20:45:27.841Z,10.97
2019-03-26T20:47:57.382Z,10.90
2019-03-26T20:50:26.888Z,11.37
2019-03-26T20:52:56.346Z,12.40
2019-03-26T20:55:33.901Z,12.33
2019-03-26T20:58:04.003Z,12.57
2019-03-26T21:00:35.125Z,12.63
2019-03-26T21:03:04.830Z,11.47
2019-03-26T21:05:34.751Z,13.37
2019-03-26T21:08:04.849Z,13.10
2019-03-26T21:10:34.595Z,12.17
2019-03-26T21:13:04.048Z,11.70
2019-03-26T21:15:33.504Z,13.60
2019-03-26T21:18:02.958Z,11.57
2019-03-26T21:20:32.496Z,11.63
2019-03-26T21:23:01.903Z,10.70
2019-03-26T21:25:31.624Z,10.60
2019-03-26T21:28:01.095Z,9.73
2019-03-26T21:30:30.826Z,10.83
2019-03-26T21:33:00.294Z,9.90
2019-03-26T21:35:29.831Z,11.00
2019-03-26T21:37:59.313Z,10.03
2019-03-26T21:40:28.771Z,9.67
2019-03-26T21:42:58.216Z,9.80
2019-03-26T21:45:35.095Z,10.17
2019-03-26T21:48:05.448Z,10.63
2019-03-26T21:50:35.270Z,9.97
2019-03-26T21:53:04.980Z,9.87
2019-03-26T21:55:34.605Z,9.20
2019-03-26T21:58:04.299Z,9.10
2019-03-26T22:00:34.061Z,9.30
2019-03-26T22:03:03.517Z,8.93
2019-03-26T22:05:32.999Z,9.50
2019-03-26T22:08:02.447Z,10.10
2019-03-26T22:10:31.900Z,9.50
2019-03-26T22:13:01.369Z,10.83
2019-03-26T22:15:30.842Z,9.27
2019-03-26T22:18:00.288Z,9.87
2019-03-26T22:20:29.766Z,9.97
2019-03-26T22:22:59.305Z,10.50
2019-03-26T22:25:28.803Z,9.57
2019-03-26T22:27:58.258Z,9.87
2019-03-26T22:30:27.710Z,10.37
2019-03-26T22:32:57.174Z,9.70
2019-03-26T22:35:26.975Z,9.80
2019-03-26T22:37:56.433Z,9.97
2019-03-26T22:40:25.906Z,9.73
2019-03-26T22:42:55.362Z,9.70
2019-03-26T22:45:24.836Z,10.07
2019-03-26T22:47:54.307Z,10.40
2019-03-26T22:50:24.098Z,9.53
2019-03-26T22:52:53.566Z,9.83
2019-03-26T22:55:23.030Z,9.20
2019-03-26T22:57:52.472Z,10.20
2019-03-26T23:00:21.932Z,9.37
2019-03-26T23:02:51.389Z,10.10
2019-03-26T23:05:20.912Z,9.43
2019-03-26T23:07:50.365Z,8.93
2019-03-26T23:10:20.396Z,8.83
2019-03-26T23:12:49.844Z,10.40
2019-03-26T23:15:24.365Z,8.67
2019-03-26T23:17:53.816Z,8.73
2019-03-26T23:20:23.523Z,8.67
2019-03-26T23:22:52.964Z,7.87
2019-03-26T23:25:22.456Z,8.10
2019-03-26T23:27:53.517Z,7.70
2019-03-26T23:30:22.987Z,8.17
2019-03-26T23:32:52.426Z,7.53
2019-03-26T23:35:21.880Z,7.10
2019-03-26T23:37:51.341Z,6.70
2019-03-26T23:40:20.789Z,7.13
2019-03-26T23:42:50.235Z,6.00
2019-03-26T23:45:19.688Z,5.67
2019-03-26T23:47:49.145Z,5.80
2019-03-26T23:50:18.596Z,6.00
2019-03-26T23:52:48.028Z,6.23
2019-03-26T23:55:18.105Z,5.33
2019-03-26T23:57:47.925Z,5.73
